sensor_id;sensor_type;location;lat;lon;timestamp;temperature;humidity
23079;DHT22;11707;50.830;4.364;2024-01-11T00:01:47;-1.10;99.90
23079;DHT22;11707;50.830;4.364;2024-01-11T00:04:13;-1.10;99.90
23079;DHT22;11707;50.830;4.364;2024-01-11T00:06:43;-1.10;99.90
23079;DHT22;11707;50.830;4.364;2024-01-11T00:09:11;-1.30;99.90
23079;DHT22;11707;50.830;4.364;2024-01-11T00:11:39;-1.30;1.00
23079;DHT22;11707;50.830;4.364;2024-01-11T00:14:07;-1.30;1.00
23079;DHT22;11707;50.830;4.364;2024-01-11T00:16:33;-1.30;1.00
23079;DHT22;11707;50.830;4.364;2024-01-11T00:18:59;-1.30;1.00
23079;DHT22;11707;50.830;4.364;2024-01-11T00:21:25;-1.30;99.90
23079;DHT22;11707;50.830;4.364;2024-01-11T00:23:51;-1.30;1.00
23079;DHT22;11707;50.830;4.364;2024-01-11T00:26:16;-1.20;1.00
23079;DHT22;11707;50.830;4.364;2024-01-11T00:28:42;-1.30;1.00
23079;DHT22;11707;50.830;4.364;2024-01-11T00:31:08;-1.30;1.00
23079;DHT22;11707;50.830;4.364;2024-01-11T00:33:33;-1.30;1.00
23079;DHT22;11707;50.830;4.364;2024-01-11T00:36:03;-1.30;1.00
23079;DHT22;11707;50.830;4.364;2024-01-11T00:38:29;-1.30;1.00
23079;DHT22;11707;50.830;4.364;2024-01-11T00:40:54;-1.30;1.00
23079;DHT22;11707;50.830;4.364;2024-01-11T00:43:20;-1.30;99.90
23079;DHT22;11707;50.830;4.364;2024-01-11T00:45:48;-1.30;99.90
23079;DHT22;11707;50.830;4.364;2024-01-11T00:48:14;-1.10;1.00
23079;DHT22;11707;50.830;4.364;2024-01-11T00:50:39;-1.20;1.00
23079;DHT22;11707;50.830;4.364;2024-01-11T00:53:05;-1.30;1.00
23079;DHT22;11707;50.830;4.364;2024-01-11T00:55:31;-1.30;1.00
23079;DHT22;11707;50.830;4.364;2024-01-11T00:57:56;-1.30;70.70
23079;DHT22;11707;50.830;4.364;2024-01-11T01:00:22;-1.30;32.00
23079;DHT22;11707;50.830;4.364;2024-01-11T01:02:48;-1.30;1.00
23079;DHT22;11707;50.830;4.364;2024-01-11T01:05:14;-1.20;1.00
23079;DHT22;11707;50.830;4.364;2024-01-11T01:07:42;-1.10;1.00
23079;DHT22;11707;50.830;4.364;2024-01-11T01:10:08;-1.20;1.00
23079;DHT22;11707;50.830;4.364;2024-01-11T01:12:34;-1.30;1.00
23079;DHT22;11707;50.830;4.364;2024-01-11T01:15:00;-1.30;4.80
23079;DHT22;11707;50.830;4.364;2024-01-11T01:17:25;-1.40;1.00
23079;DHT22;11707;50.830;4.364;2024-01-11T01:19:51;-1.50;99.90
23079;DHT22;11707;50.830;4.364;2024-01-11T01:22:17;-1.60;99.90
23079;DHT22;11707;50.830;4.364;2024-01-11T01:24:42;-1.60;1.00
23079;DHT22;11707;50.830;4.364;2024-01-11T01:27:08;-1.70;1.00
23079;DHT22;11707;50.830;4.364;2024-01-11T01:29:34;-1.70;13.70
23079;DHT22;11707;50.830;4.364;2024-01-11T01:31:59;-1.70;99.90
23079;DHT22;11707;50.830;4.364;2024-01-11T01:34:27;-1.70;99.90
23079;DHT22;11707;50.830;4.364;2024-01-11T01:36:53;-1.60;99.90
23079;DHT22;11707;50.830;4.364;2024-01-11T01:39:18;-1.50;99.90
23079;DHT22;11707;50.830;4.364;2024-01-11T01:41:44;-1.60;1.00
23079;DHT22;11707;50.830;4.364;2024-01-11T01:44:10;-1.70;20.30
23079;DHT22;11707;50.830;4.364;2024-01-11T01:46:35;-1.70;95.40
23079;DHT22;11707;50.830;4.364;2024-01-11T01:49:02;-1.80;99.90
23079;DHT22;11707;50.830;4.364;2024-01-11T01:51:31;-1.90;99.90
23079;DHT22;11707;50.830;4.364;2024-01-11T01:53:58;-1.80;99.90
23079;DHT22;11707;50.830;4.364;2024-01-11T01:56:25;-1.90;99.90
23079;DHT22;11707;50.830;4.364;2024-01-11T01:58:54;-1.80;99.90
23079;DHT22;11707;50.830;4.364;2024-01-11T02:01:20;-1.70;99.90
23079;DHT22;11707;50.830;4.364;2024-01-11T02:03:49;-1.70;99.90
23079;DHT22;11707;50.830;4.364;2024-01-11T02:06:16;-1.70;99.90
23079;DHT22;11707;50.830;4.364;2024-01-11T02:08:44;-1.80;97.60
23079;DHT22;11707;50.830;4.364;2024-01-11T02:11:11;-1.70;99.90
23079;DHT22;11707;50.830;4.364;2024-01-11T02:13:37;-1.80;5.10
23079;DHT22;11707;50.830;4.364;2024-01-11T02:16:03;-1.90;99.90
23079;DHT22;11707;50.830;4.364;2024-01-11T02:18:29;-2.00;3.50
23079;DHT22;11707;50.830;4.364;2024-01-11T02:20:58;-2.00;99.90
23079;DHT22;11707;50.830;4.364;2024-01-11T02:23:26;-1.90;99.90
23079;DHT22;11707;50.830;4.364;2024-01-11T02:25:53;-1.70;99.90
23079;DHT22;11707;50.830;4.364;2024-01-11T02:28:21;-1.70;99.90
23079;DHT22;11707;50.830;4.364;2024-01-11T02:30:46;-1.70;99.90
23079;DHT22;11707;50.830;4.364;2024-01-11T02:33:12;-1.80;99.90
23079;DHT22;11707;50.830;4.364;2024-01-11T02:35:41;-1.80;1.00
23079;DHT22;11707;50.830;4.364;2024-01-11T02:38:08;-1.80;9.20
23079;DHT22;11707;50.830;4.364;2024-01-11T02:40:34;-1.90;99.90
23079;DHT22;11707;50.830;4.364;2024-01-11T02:43:10;-2.00;1.00
23079;DHT22;11707;50.830;4.364;2024-01-11T02:45:36;-2.00;44.30
23079;DHT22;11707;50.830;4.364;2024-01-11T02:48:02;-2.00;99.90
23079;DHT22;11707;50.830;4.364;2024-01-11T02:50:27;-1.90;99.90
23079;DHT22;11707;50.830;4.364;2024-01-11T02:52:53;-2.00;99.90
23079;DHT22;11707;50.830;4.364;2024-01-11T02:55:19;-2.00;99.90
23079;DHT22;11707;50.830;4.364;2024-01-11T02:57:45;-2.00;99.90
23079;DHT22;11707;50.830;4.364;2024-01-11T03:00:13;-2.00;99.90
23079;DHT22;11707;50.830;4.364;2024-01-11T03:02:41;-1.90;99.90
23079;DHT22;11707;50.830;4.364;2024-01-11T03:05:07;-1.80;99.90
23079;DHT22;11707;50.830;4.364;2024-01-11T03:07:33;-1.90;99.90
23079;DHT22;11707;50.830;4.364;2024-01-11T03:09:58;-1.80;99.90
23079;DHT22;11707;50.830;4.364;2024-01-11T03:12:24;-1.80;99.90
23079;DHT22;11707;50.830;4.364;2024-01-11T03:14:51;-2.00;99.90
23079;DHT22;11707;50.830;4.364;2024-01-11T03:17:17;-1.90;99.90
23079;DHT22;11707;50.830;4.364;2024-01-11T03:19:43;-1.90;1.00
23079;DHT22;11707;50.830;4.364;2024-01-11T03:22:08;-1.70;99.90
23079;DHT22;11707;50.830;4.364;2024-01-11T03:24:38;-1.70;99.90
23079;DHT22;11707;50.830;4.364;2024-01-11T03:27:04;-1.70;1.00
23079;DHT22;11707;50.830;4.364;2024-01-11T03:29:31;-1.70;8.70
23079;DHT22;11707;50.830;4.364;2024-01-11T03:31:59;-1.70;60.90
23079;DHT22;11707;50.830;4.364;2024-01-11T03:34:25;-1.80;99.90
23079;DHT22;11707;50.830;4.364;2024-01-11T03:36:50;-1.80;99.90
23079;DHT22;11707;50.830;4.364;2024-01-11T03:39:16;-1.70;99.90
23079;DHT22;11707;50.830;4.364;2024-01-11T03:41:45;-1.70;99.90
23079;DHT22;11707;50.830;4.364;2024-01-11T03:44:11;-1.70;49.60
23079;DHT22;11707;50.830;4.364;2024-01-11T03:46:37;-1.50;99.90
23079;DHT22;11707;50.830;4.364;2024-01-11T03:49:03;-1.50;99.90
23079;DHT22;11707;50.830;4.364;2024-01-11T03:51:28;-1.60;99.90
23079;DHT22;11707;50.830;4.364;2024-01-11T03:53:54;-1.60;99.90
23079;DHT22;11707;50.830;4.364;2024-01-11T03:56:20;-1.70;1.00
23079;DHT22;11707;50.830;4.364;2024-01-11T03:58:45;-1.80;29.20
23079;DHT22;11707;50.830;4.364;2024-01-11T04:01:11;-1.90;99.90
23079;DHT22;11707;50.830;4.364;2024-01-11T04:03:37;-2.00;99.90
23079;DHT22;11707;50.830;4.364;2024-01-11T04:06:03;-2.10;1.00
23079;DHT22;11707;50.830;4.364;2024-01-11T04:08:29;-2.10;1.00
23079;DHT22;11707;50.830;4.364;2024-01-11T04:10:55;-2.00;1.00
23079;DHT22;11707;50.830;4.364;2024-01-11T04:13:29;-1.90;1.00
23079;DHT22;11707;50.830;4.364;2024-01-11T04:15:55;-1.90;1.00
23079;DHT22;11707;50.830;4.364;2024-01-11T04:18:23;-1.80;1.00
23079;DHT22;11707;50.830;4.364;2024-01-11T04:20:48;-1.70;99.90
23079;DHT22;11707;50.830;4.364;2024-01-11T04:23:14;-1.50;99.90
23079;DHT22;11707;50.830;4.364;2024-01-11T04:25:42;-1.40;99.90
23079;DHT22;11707;50.830;4.364;2024-01-11T04:28:10;-1.30;99.90
23079;DHT22;11707;50.830;4.364;2024-01-11T04:30:38;-1.30;1.00
23079;DHT22;11707;50.830;4.364;2024-01-11T04:33:04;-1.30;1.00
23079;DHT22;11707;50.830;4.364;2024-01-11T04:35:30;-1.40;2.10
23079;DHT22;11707;50.830;4.364;2024-01-11T04:38:00;-1.40;1.00
23079;DHT22;11707;50.830;4.364;2024-01-11T04:40:26;-1.40;95.30
23079;DHT22;11707;50.830;4.364;2024-01-11T04:42:51;-1.60;99.90
23079;DHT22;11707;50.830;4.364;2024-01-11T04:45:17;-1.70;99.90
23079;DHT22;11707;50.830;4.364;2024-01-11T04:47:43;-1.80;99.90
23079;DHT22;11707;50.830;4.364;2024-01-11T04:50:09;-1.80;99.90
23079;DHT22;11707;50.830;4.364;2024-01-11T04:52:34;-1.90;1.00
23079;DHT22;11707;50.830;4.364;2024-01-11T04:55:01;-1.90;67.10
23079;DHT22;11707;50.830;4.364;2024-01-11T04:57:27;-1.90;99.90
23079;DHT22;11707;50.830;4.364;2024-01-11T04:59:53;-1.90;99.90
23079;DHT22;11707;50.830;4.364;2024-01-11T05:02:20;-2.00;99.90
23079;DHT22;11707;50.830;4.364;2024-01-11T05:04:47;-2.10;1.00
23079;DHT22;11707;50.830;4.364;2024-01-11T05:07:13;-2.10;99.90
23079;DHT22;11707;50.830;4.364;2024-01-11T05:09:39;-2.10;99.90
23079;DHT22;11707;50.830;4.364;2024-01-11T05:12:05;-2.20;99.90
23079;DHT22;11707;50.830;4.364;2024-01-11T05:14:31;-2.30;99.90
23079;DHT22;11707;50.830;4.364;2024-01-11T05:16:57;-2.30;99.90
23079;DHT22;11707;50.830;4.364;2024-01-11T05:19:25;-2.30;1.00
23079;DHT22;11707;50.830;4.364;2024-01-11T05:21:50;-2.40;1.00
23079;DHT22;11707;50.830;4.364;2024-01-11T05:24:21;-2.50;22.20
23079;DHT22;11707;50.830;4.364;2024-01-11T05:26:46;-2.60;99.90
23079;DHT22;11707;50.830;4.364;2024-01-11T05:29:12;-2.60;99.90
23079;DHT22;11707;50.830;4.364;2024-01-11T05:31:38;-2.60;99.90
23079;DHT22;11707;50.830;4.364;2024-01-11T05:34:03;-2.60;99.90
23079;DHT22;11707;50.830;4.364;2024-01-11T05:36:29;-2.70;99.90
23079;DHT22;11707;50.830;4.364;2024-01-11T05:38:55;-2.60;99.90
23079;DHT22;11707;50.830;4.364;2024-01-11T05:41:20;-2.60;99.90
23079;DHT22;11707;50.830;4.364;2024-01-11T05:43:46;-2.50;99.90
23079;DHT22;11707;50.830;4.364;2024-01-11T05:46:12;-2.40;99.90
23079;DHT22;11707;50.830;4.364;2024-01-11T05:48:37;-2.40;99.90
23079;DHT22;11707;50.830;4.364;2024-01-11T05:51:03;-2.50;99.90
23079;DHT22;11707;50.830;4.364;2024-01-11T05:53:29;-2.60;99.90
23079;DHT22;11707;50.830;4.364;2024-01-11T05:55:54;-2.60;99.90
23079;DHT22;11707;50.830;4.364;2024-01-11T05:58:20;-2.70;99.90
23079;DHT22;11707;50.830;4.364;2024-01-11T06:00:46;-2.70;99.90
23079;DHT22;11707;50.830;4.364;2024-01-11T06:03:12;-2.60;99.90
23079;DHT22;11707;50.830;4.364;2024-01-11T06:05:40;-2.60;99.90
23079;DHT22;11707;50.830;4.364;2024-01-11T06:08:06;-2.60;99.90
23079;DHT22;11707;50.830;4.364;2024-01-11T06:10:33;-2.50;99.90
23079;DHT22;11707;50.830;4.364;2024-01-11T06:13:01;-2.40;99.90
23079;DHT22;11707;50.830;4.364;2024-01-11T06:15:26;-2.50;99.90
23079;DHT22;11707;50.830;4.364;2024-01-11T06:17:54;-2.70;99.90
23079;DHT22;11707;50.830;4.364;2024-01-11T06:20:20;-2.70;1.00
23079;DHT22;11707;50.830;4.364;2024-01-11T06:22:46;-2.70;1.00
23079;DHT22;11707;50.830;4.364;2024-01-11T06:25:11;-2.70;1.00
23079;DHT22;11707;50.830;4.364;2024-01-11T06:27:44;-2.70;1.00
23079;DHT22;11707;50.830;4.364;2024-01-11T06:30:13;-2.60;99.90
23079;DHT22;11707;50.830;4.364;2024-01-11T06:32:38;-2.50;99.90
23079;DHT22;11707;50.830;4.364;2024-01-11T06:35:04;-2.70;99.90
23079;DHT22;11707;50.830;4.364;2024-01-11T06:37:30;-2.70;1.00
23079;DHT22;11707;50.830;4.364;2024-01-11T06:39:58;-2.70;1.00
23079;DHT22;11707;50.830;4.364;2024-01-11T06:42:24;-2.80;1.00
23079;DHT22;11707;50.830;4.364;2024-01-11T06:44:50;-2.80;1.00
23079;DHT22;11707;50.830;4.364;2024-01-11T06:47:15;-2.70;1.00
23079;DHT22;11707;50.830;4.364;2024-01-11T06:49:45;-2.50;99.90
23079;DHT22;11707;50.830;4.364;2024-01-11T06:52:11;-2.50;99.90
23079;DHT22;11707;50.830;4.364;2024-01-11T06:54:36;-2.50;99.90
23079;DHT22;11707;50.830;4.364;2024-01-11T06:57:05;-2.60;99.90
23079;DHT22;11707;50.830;4.364;2024-01-11T06:59:34;-2.70;99.90
23079;DHT22;11707;50.830;4.364;2024-01-11T07:02:00;-2.70;99.90
23079;DHT22;11707;50.830;4.364;2024-01-11T07:04:25;-2.60;99.90
23079;DHT22;11707;50.830;4.364;2024-01-11T07:06:51;-2.70;99.90
23079;DHT22;11707;50.830;4.364;2024-01-11T07:09:17;-2.60;1.00
23079;DHT22;11707;50.830;4.364;2024-01-11T07:11:43;-2.70;99.90
23079;DHT22;11707;50.830;4.364;2024-01-11T07:14:09;-2.70;99.90
23079;DHT22;11707;50.830;4.364;2024-01-11T07:16:35;-2.70;99.90
23079;DHT22;11707;50.830;4.364;2024-01-11T07:19:04;-2.60;99.90
23079;DHT22;11707;50.830;4.364;2024-01-11T07:21:30;-2.60;99.90
23079;DHT22;11707;50.830;4.364;2024-01-11T07:24:00;-2.70;99.90
23079;DHT22;11707;50.830;4.364;2024-01-11T07:26:26;-2.70;1.00
23079;DHT22;11707;50.830;4.364;2024-01-11T07:28:52;-2.60;1.00
23079;DHT22;11707;50.830;4.364;2024-01-11T07:31:20;-2.50;99.90
23079;DHT22;11707;50.830;4.364;2024-01-11T07:33:46;-2.50;99.90
23079;DHT22;11707;50.830;4.364;2024-01-11T07:36:12;-2.60;99.90
23079;DHT22;11707;50.830;4.364;2024-01-11T07:38:37;-2.70;99.90
23079;DHT22;11707;50.830;4.364;2024-01-11T07:41:03;-2.80;99.90
23079;DHT22;11707;50.830;4.364;2024-01-11T07:43:29;-2.90;99.90
23079;DHT22;11707;50.830;4.364;2024-01-11T07:45:56;-2.90;1.00
23079;DHT22;11707;50.830;4.364;2024-01-11T07:48:22;-2.80;1.00
23079;DHT22;11707;50.830;4.364;2024-01-11T07:50:49;-2.80;1.00
23079;DHT22;11707;50.830;4.364;2024-01-11T07:53:17;-2.80;1.00
23079;DHT22;11707;50.830;4.364;2024-01-11T07:55:42;-2.80;1.00
23079;DHT22;11707;50.830;4.364;2024-01-11T07:58:08;-2.80;1.00
23079;DHT22;11707;50.830;4.364;2024-01-11T08:00:34;-2.90;1.00
23079;DHT22;11707;50.830;4.364;2024-01-11T08:03:00;-3.00;1.00
23079;DHT22;11707;50.830;4.364;2024-01-11T08:05:26;-2.90;35.10
23079;DHT22;11707;50.830;4.364;2024-01-11T08:07:51;-2.90;1.00
23079;DHT22;11707;50.830;4.364;2024-01-11T08:10:17;-2.90;1.00
23079;DHT22;11707;50.830;4.364;2024-01-11T08:12:45;-2.90;1.00
23079;DHT22;11707;50.830;4.364;2024-01-11T08:15:11;-2.90;5.90
23079;DHT22;11707;50.830;4.364;2024-01-11T08:17:39;-2.90;1.00
23079;DHT22;11707;50.830;4.364;2024-01-11T08:20:05;-2.90;1.00
23079;DHT22;11707;50.830;4.364;2024-01-11T08:22:34;-2.90;1.00
23079;DHT22;11707;50.830;4.364;2024-01-11T08:25:02;-2.80;26.70
23079;DHT22;11707;50.830;4.364;2024-01-11T08:27:33;-2.80;1.00
23079;DHT22;11707;50.830;4.364;2024-01-11T08:29:59;-2.60;1.00
23079;DHT22;11707;50.830;4.364;2024-01-11T08:32:29;-2.50;1.00
23079;DHT22;11707;50.830;4.364;2024-01-11T08:34:57;-2.60;99.90
23079;DHT22;11707;50.830;4.364;2024-01-11T08:37:23;-2.70;99.90
23079;DHT22;11707;50.830;4.364;2024-01-11T08:39:50;-2.60;99.90
23079;DHT22;11707;50.830;4.364;2024-01-11T08:42:15;-2.60;99.90
23079;DHT22;11707;50.830;4.364;2024-01-11T08:44:42;-2.60;99.90
23079;DHT22;11707;50.830;4.364;2024-01-11T08:47:10;-2.50;99.90
23079;DHT22;11707;50.830;4.364;2024-01-11T08:49:37;-2.50;99.90
23079;DHT22;11707;50.830;4.364;2024-01-11T08:52:04;-2.40;99.90
23079;DHT22;11707;50.830;4.364;2024-01-11T08:54:32;-2.40;99.90
23079;DHT22;11707;50.830;4.364;2024-01-11T08:56:58;-2.40;99.90
23079;DHT22;11707;50.830;4.364;2024-01-11T08:59:24;-2.20;99.90
23079;DHT22;11707;50.830;4.364;2024-01-11T09:01:51;-2.20;99.90
23079;DHT22;11707;50.830;4.364;2024-01-11T09:04:17;-2.20;99.90
23079;DHT22;11707;50.830;4.364;2024-01-11T09:06:44;-2.20;85.90
23079;DHT22;11707;50.830;4.364;2024-01-11T09:09:10;-2.20;56.30
23079;DHT22;11707;50.830;4.364;2024-01-11T09:11:36;-2.20;76.60
23079;DHT22;11707;50.830;4.364;2024-01-11T09:14:02;-2.30;99.90
23079;DHT22;11707;50.830;4.364;2024-01-11T09:16:31;-2.30;1.00
23079;DHT22;11707;50.830;4.364;2024-01-11T09:18:56;-2.20;1.00
23079;DHT22;11707;50.830;4.364;2024-01-11T09:21:22;-2.30;1.00
23079;DHT22;11707;50.830;4.364;2024-01-11T09:23:50;-2.20;99.90
23079;DHT22;11707;50.830;4.364;2024-01-11T09:26:18;-2.10;1.00
23079;DHT22;11707;50.830;4.364;2024-01-11T09:28:44;-2.10;1.00
23079;DHT22;11707;50.830;4.364;2024-01-11T09:31:13;-2.00;99.90
23079;DHT22;11707;50.830;4.364;2024-01-11T09:33:39;-2.00;1.00
23079;DHT22;11707;50.830;4.364;2024-01-11T09:36:05;-1.80;99.90
23079;DHT22;11707;50.830;4.364;2024-01-11T09:38:31;-1.80;99.90
23079;DHT22;11707;50.830;4.364;2024-01-11T09:41:08;-1.90;19.40
23079;DHT22;11707;50.830;4.364;2024-01-11T09:43:35;-2.00;99.90
23079;DHT22;11707;50.830;4.364;2024-01-11T09:46:05;-1.90;99.90
23079;DHT22;11707;50.830;4.364;2024-01-11T09:48:33;-1.80;99.90
23079;DHT22;11707;50.830;4.364;2024-01-11T09:51:01;-1.60;1.00
23079;DHT22;11707;50.830;4.364;2024-01-11T09:53:30;-1.50;99.90
23079;DHT22;11707;50.830;4.364;2024-01-11T09:55:58;-1.50;99.90
23079;DHT22;11707;50.830;4.364;2024-01-11T09:58:24;-1.30;1.00
23079;DHT22;11707;50.830;4.364;2024-01-11T10:00:54;-1.30;99.90
23079;DHT22;11707;50.830;4.364;2024-01-11T10:03:23;-1.30;99.90
23079;DHT22;11707;50.830;4.364;2024-01-11T10:05:51;-1.30;99.90
23079;DHT22;11707;50.830;4.364;2024-01-11T10:08:21;-1.10;1.00
23079;DHT22;11707;50.830;4.364;2024-01-11T10:10:47;-0.90;99.90
23079;DHT22;11707;50.830;4.364;2024-01-11T10:13:17;-0.70;1.00
23079;DHT22;11707;50.830;4.364;2024-01-11T10:15:43;-0.80;1.00
23079;DHT22;11707;50.830;4.364;2024-01-11T10:18:09;-0.70;99.90
23079;DHT22;11707;50.830;4.364;2024-01-11T10:20:35;-0.70;99.90
23079;DHT22;11707;50.830;4.364;2024-01-11T10:23:02;-0.60;99.90
23079;DHT22;11707;50.830;4.364;2024-01-11T10:25:28;-0.60;99.90
23079;DHT22;11707;50.830;4.364;2024-01-11T10:27:57;-0.40;99.90
23079;DHT22;11707;50.830;4.364;2024-01-11T10:30:23;-0.30;23.10
23079;DHT22;11707;50.830;4.364;2024-01-11T10:32:51;-0.20;99.90
23079;DHT22;11707;50.830;4.364;2024-01-11T10:35:21;-0.20;99.90
23079;DHT22;11707;50.830;4.364;2024-01-11T10:37:52;-0.10;99.90
23079;DHT22;11707;50.830;4.364;2024-01-11T10:43:37;-0.20;85.20
23079;DHT22;11707;50.830;4.364;2024-01-11T10:46:06;-0.10;10.60
23079;DHT22;11707;50.830;4.364;2024-01-11T10:48:44;-0.10;54.90
23079;DHT22;11707;50.830;4.364;2024-01-11T10:51:12;-0.20;58.00
23079;DHT22;11707;50.830;4.364;2024-01-11T10:53:41;-0.20;72.10
23079;DHT22;11707;50.830;4.364;2024-01-11T10:56:10;-0.20;99.90
23079;DHT22;11707;50.830;4.364;2024-01-11T10:58:40;-0.10;99.90
23079;DHT22;11707;50.830;4.364;2024-01-11T11:01:11;-0.10;99.90
23079;DHT22;11707;50.830;4.364;2024-01-11T11:03:38;-0.20;99.90
23079;DHT22;11707;50.830;4.364;2024-01-11T11:06:09;-0.30;99.90
23079;DHT22;11707;50.830;4.364;2024-01-11T11:08:36;-0.20;99.90
23079;DHT22;11707;50.830;4.364;2024-01-11T11:11:03;-0.10;99.90
23079;DHT22;11707;50.830;4.364;2024-01-11T11:13:33;0.00;99.90
23079;DHT22;11707;50.830;4.364;2024-01-11T11:16:02;0.00;99.90
23079;DHT22;11707;50.830;4.364;2024-01-11T11:18:34;0.10;99.90
23079;DHT22;11707;50.830;4.364;2024-01-11T11:21:02;0.20;6.40
23079;DHT22;11707;50.830;4.364;2024-01-11T11:23:31;0.30;1.00
23079;DHT22;11707;50.830;4.364;2024-01-11T11:25:57;0.50;1.00
23079;DHT22;11707;50.830;4.364;2024-01-11T11:28:23;0.60;99.90
23079;DHT22;11707;50.830;4.364;2024-01-11T11:30:49;0.70;99.90
23079;DHT22;11707;50.830;4.364;2024-01-11T11:33:18;0.70;99.90
23079;DHT22;11707;50.830;4.364;2024-01-11T11:35:46;0.70;99.90
23079;DHT22;11707;50.830;4.364;2024-01-11T11:38:21;0.80;99.90
23079;DHT22;11707;50.830;4.364;2024-01-11T11:40:48;1.00;57.50
23079;DHT22;11707;50.830;4.364;2024-01-11T11:43:17;1.00;1.00
23079;DHT22;11707;50.830;4.364;2024-01-11T11:45:45;1.10;1.00
23079;DHT22;11707;50.830;4.364;2024-01-11T11:51:15;1.30;1.00
23079;DHT22;11707;50.830;4.364;2024-01-11T11:53:42;1.50;99.90
23079;DHT22;11707;50.830;4.364;2024-01-11T11:56:12;1.50;99.90
23079;DHT22;11707;50.830;4.364;2024-01-11T11:58:40;1.50;99.90
23079;DHT22;11707;50.830;4.364;2024-01-11T12:01:06;1.60;99.90
23079;DHT22;11707;50.830;4.364;2024-01-11T12:03:33;1.60;99.90
23079;DHT22;11707;50.830;4.364;2024-01-11T12:06:03;1.70;99.90
23079;DHT22;11707;50.830;4.364;2024-01-11T12:08:29;1.50;99.90
23079;DHT22;11707;50.830;4.364;2024-01-11T12:10:55;1.50;99.90
23079;DHT22;11707;50.830;4.364;2024-01-11T12:13:21;1.40;99.90
23079;DHT22;11707;50.830;4.364;2024-01-11T12:15:47;1.30;99.90
23079;DHT22;11707;50.830;4.364;2024-01-11T12:18:14;1.40;99.90
23079;DHT22;11707;50.830;4.364;2024-01-11T12:20:40;1.40;99.90
23079;DHT22;11707;50.830;4.364;2024-01-11T12:23:08;1.50;99.90
23079;DHT22;11707;50.830;4.364;2024-01-11T12:25:37;1.60;99.90
23079;DHT22;11707;50.830;4.364;2024-01-11T12:28:03;1.60;99.90
23079;DHT22;11707;50.830;4.364;2024-01-11T12:30:31;1.60;99.90
23079;DHT22;11707;50.830;4.364;2024-01-11T12:32:57;1.70;99.90
23079;DHT22;11707;50.830;4.364;2024-01-11T12:35:25;1.70;99.90
23079;DHT22;11707;50.830;4.364;2024-01-11T12:38:00;1.90;99.90
23079;DHT22;11707;50.830;4.364;2024-01-11T12:40:27;2.10;99.90
23079;DHT22;11707;50.830;4.364;2024-01-11T12:42:56;2.10;99.40
23079;DHT22;11707;50.830;4.364;2024-01-11T12:45:24;2.10;87.20
23079;DHT22;11707;50.830;4.364;2024-01-11T12:47:54;2.10;99.90
23079;DHT22;11707;50.830;4.364;2024-01-11T12:50:23;2.10;99.90
23079;DHT22;11707;50.830;4.364;2024-01-11T12:53:11;2.10;50.10
23079;DHT22;11707;50.830;4.364;2024-01-11T12:55:47;2.10;32.90
23079;DHT22;11707;50.830;4.364;2024-01-11T12:58:14;2.00;43.40
23079;DHT22;11707;50.830;4.364;2024-01-11T13:00:46;1.90;81.60
23079;DHT22;11707;50.830;4.364;2024-01-11T13:03:12;1.90;99.90
23079;DHT22;11707;50.830;4.364;2024-01-11T13:05:38;2.00;99.90
23079;DHT22;11707;50.830;4.364;2024-01-11T13:08:08;2.10;71.60
23079;DHT22;11707;50.830;4.364;2024-01-11T13:10:37;2.20;87.60
23079;DHT22;11707;50.830;4.364;2024-01-11T13:13:04;2.30;84.90
23079;DHT22;11707;50.830;4.364;2024-01-11T13:15:33;2.30;46.50
23079;DHT22;11707;50.830;4.364;2024-01-11T13:18:00;2.20;22.50
23079;DHT22;11707;50.830;4.364;2024-01-11T13:20:27;2.10;50.20
23079;DHT22;11707;50.830;4.364;2024-01-11T13:23:15;2.10;68.20
23079;DHT22;11707;50.830;4.364;2024-01-11T13:25:43;2.10;85.60
23079;DHT22;11707;50.830;4.364;2024-01-11T13:28:09;2.20;62.70
23079;DHT22;11707;50.830;4.364;2024-01-11T13:30:38;2.20;31.50
23079;DHT22;11707;50.830;4.364;2024-01-11T13:33:05;2.10;44.50
23079;DHT22;11707;50.830;4.364;2024-01-11T13:35:31;2.10;38.40
23079;DHT22;11707;50.830;4.364;2024-01-11T13:37:57;2.30;38.80
23079;DHT22;11707;50.830;4.364;2024-01-11T13:40:22;2.30;24.70
23079;DHT22;11707;50.830;4.364;2024-01-11T13:42:51;2.40;4.90
23079;DHT22;11707;50.830;4.364;2024-01-11T13:45:16;2.40;5.90
23079;DHT22;11707;50.830;4.364;2024-01-11T13:47:42;2.40;1.00
23079;DHT22;11707;50.830;4.364;2024-01-11T13:50:08;2.50;1.00
23079;DHT22;11707;50.830;4.364;2024-01-11T13:52:36;2.50;1.00
23079;DHT22;11707;50.830;4.364;2024-01-11T13:55:02;2.60;1.00
23079;DHT22;11707;50.830;4.364;2024-01-11T13:57:28;2.60;1.00
23079;DHT22;11707;50.830;4.364;2024-01-11T13:59:54;2.50;1.00
23079;DHT22;11707;50.830;4.364;2024-01-11T14:02:20;2.40;1.00
23079;DHT22;11707;50.830;4.364;2024-01-11T14:04:46;2.40;3.00
23079;DHT22;11707;50.830;4.364;2024-01-11T14:07:12;2.40;3.40
23079;DHT22;11707;50.830;4.364;2024-01-11T14:09:38;2.50;1.00
23079;DHT22;11707;50.830;4.364;2024-01-11T14:12:04;2.70;1.00
23079;DHT22;11707;50.830;4.364;2024-01-11T14:14:30;3.00;1.00
23079;DHT22;11707;50.830;4.364;2024-01-11T14:16:55;3.30;1.00
23079;DHT22;11707;50.830;4.364;2024-01-11T14:19:22;3.70;99.90
23079;DHT22;11707;50.830;4.364;2024-01-11T14:21:48;3.90;99.90
23079;DHT22;11707;50.830;4.364;2024-01-11T14:24:14;3.90;99.90
23079;DHT22;11707;50.830;4.364;2024-01-11T14:26:43;3.80;99.90
23079;DHT22;11707;50.830;4.364;2024-01-11T14:29:09;3.70;99.90
23079;DHT22;11707;50.830;4.364;2024-01-11T14:31:37;3.60;99.90
23079;DHT22;11707;50.830;4.364;2024-01-11T14:34:04;3.40;99.90
23079;DHT22;11707;50.830;4.364;2024-01-11T14:36:32;3.30;99.90
23079;DHT22;11707;50.830;4.364;2024-01-11T14:38:58;3.20;99.90
23079;DHT22;11707;50.830;4.364;2024-01-11T14:41:23;3.10;99.90
23079;DHT22;11707;50.830;4.364;2024-01-11T14:43:49;3.10;99.90
23079;DHT22;11707;50.830;4.364;2024-01-11T14:46:15;3.00;99.90
23079;DHT22;11707;50.830;4.364;2024-01-11T14:48:41;2.90;99.90
23079;DHT22;11707;50.830;4.364;2024-01-11T14:51:07;2.80;99.90
23079;DHT22;11707;50.830;4.364;2024-01-11T14:53:36;2.80;99.90
23079;DHT22;11707;50.830;4.364;2024-01-11T14:56:01;2.70;99.90
23079;DHT22;11707;50.830;4.364;2024-01-11T14:58:27;2.60;99.90
23079;DHT22;11707;50.830;4.364;2024-01-11T15:00:53;2.50;99.90
23079;DHT22;11707;50.830;4.364;2024-01-11T15:03:19;2.60;99.90
23079;DHT22;11707;50.830;4.364;2024-01-11T15:05:49;2.50;99.90
23079;DHT22;11707;50.830;4.364;2024-01-11T15:08:15;2.40;99.90
23079;DHT22;11707;50.830;4.364;2024-01-11T15:10:41;2.30;99.90
23079;DHT22;11707;50.830;4.364;2024-01-11T15:13:08;2.30;99.90
23079;DHT22;11707;50.830;4.364;2024-01-11T15:15:33;2.30;99.90
23079;DHT22;11707;50.830;4.364;2024-01-11T15:18:01;2.30;99.90
23079;DHT22;11707;50.830;4.364;2024-01-11T15:20:27;2.40;99.90
23079;DHT22;11707;50.830;4.364;2024-01-11T15:22:53;2.30;99.90
23079;DHT22;11707;50.830;4.364;2024-01-11T15:25:19;2.20;99.90
23079;DHT22;11707;50.830;4.364;2024-01-11T15:27:47;2.20;99.90
23079;DHT22;11707;50.830;4.364;2024-01-11T15:30:13;2.20;99.90
23079;DHT22;11707;50.830;4.364;2024-01-11T15:32:43;2.10;99.90
23079;DHT22;11707;50.830;4.364;2024-01-11T15:35:11;2.10;99.90
23079;DHT22;11707;50.830;4.364;2024-01-11T15:37:38;2.20;99.90
23079;DHT22;11707;50.830;4.364;2024-01-11T15:40:04;2.20;99.90
23079;DHT22;11707;50.830;4.364;2024-01-11T15:42:31;2.20;99.90
23079;DHT22;11707;50.830;4.364;2024-01-11T15:44:57;2.30;99.90